sensor_id;sensor_type;location;lat;lon;timestamp;P1;durP1;ratioP1;P2;durP2;ratioP2
17886;SDS011;9069;52.044;7.472;2023-02-03T00:00:49;13.32;;;8.13;;
17886;SDS011;9069;52.044;7.472;2023-02-03T00:03:16;15.73;;;8.15;;
17886;SDS011;9069;52.044;7.472;2023-02-03T00:05:43;14.43;;;7.95;;
17886;SDS011;9069;52.044;7.472;2023-02-03T00:08:10;15.38;;;8.55;;
17886;SDS011;9069;52.044;7.472;2023-02-03T00:10:38;15.75;;;7.55;;
17886;SDS011;9069;52.044;7.472;2023-02-03T00:13:05;16.35;;;8.18;;
17886;SDS011;9069;52.044;7.472;2023-02-03T00:15:33;12.25;;;7.55;;
17886;SDS011;9069;52.044;7.472;2023-02-03T00:17:59;14.60;;;8.05;;
17886;SDS011;9069;52.044;7.472;2023-02-03T00:20:26;14.00;;;7.80;;
17886;SDS011;9069;52.044;7.472;2023-02-03T00:22:54;12.65;;;7.78;;
17886;SDS011;9069;52.044;7.472;2023-02-03T00:25:20;17.73;;;8.40;;
17886;SDS011;9069;52.044;7.472;2023-02-03T00:27:47;15.80;;;8.40;;
17886;SDS011;9069;52.044;7.472;2023-02-03T00:30:14;13.93;;;7.38;;
17886;SDS011;9069;52.044;7.472;2023-02-03T00:32:41;13.43;;;7.75;;
17886;SDS011;9069;52.044;7.472;2023-02-03T00:35:09;14.98;;;8.65;;
17886;SDS011;9069;52.044;7.472;2023-02-03T00:37:35;15.60;;;7.70;;
17886;SDS011;9069;52.044;7.472;2023-02-03T00:40:02;12.00;;;8.25;;
17886;SDS011;9069;52.044;7.472;2023-02-03T00:42:29;17.17;;;8.35;;
17886;SDS011;9069;52.044;7.472;2023-02-03T00:44:56;15.15;;;7.65;;
17886;SDS011;9069;52.044;7.472;2023-02-03T00:47:23;10.45;;;7.40;;
17886;SDS011;9069;52.044;7.472;2023-02-03T00:49:50;11.13;;;7.65;;
17886;SDS011;9069;52.044;7.472;2023-02-03T00:52:16;12.73;;;7.63;;
17886;SDS011;9069;52.044;7.472;2023-02-03T00:54:43;14.60;;;7.60;;
17886;SDS011;9069;52.044;7.472;2023-02-03T00:57:10;15.38;;;6.40;;
17886;SDS011;9069;52.044;7.472;2023-02-03T00:59:37;15.65;;;7.35;;
17886;SDS011;9069;52.044;7.472;2023-02-03T01:02:04;12.27;;;6.78;;
17886;SDS011;9069;52.044;7.472;2023-02-03T01:04:31;17.40;;;6.93;;
17886;SDS011;9069;52.044;7.472;2023-02-03T01:06:57;17.75;;;6.97;;
17886;SDS011;9069;52.044;7.472;2023-02-03T01:09:25;15.70;;;7.13;;
17886;SDS011;9069;52.044;7.472;2023-02-03T01:11:52;12.70;;;6.30;;
17886;SDS011;9069;52.044;7.472;2023-02-03T01:14:19;14.30;;;6.53;;
17886;SDS011;9069;52.044;7.472;2023-02-03T01:16:46;12.85;;;6.93;;
17886;SDS011;9069;52.044;7.472;2023-02-03T01:19:13;15.15;;;6.78;;
17886;SDS011;9069;52.044;7.472;2023-02-03T01:21:39;18.45;;;7.03;;
17886;SDS011;9069;52.044;7.472;2023-02-03T01:24:06;13.80;;;6.38;;
17886;SDS011;9069;52.044;7.472;2023-02-03T01:26:37;11.25;;;6.57;;
17886;SDS011;9069;52.044;7.472;2023-02-03T01:29:03;10.80;;;6.05;;
17886;SDS011;9069;52.044;7.472;2023-02-03T01:31:32;13.57;;;6.43;;
17886;SDS011;9069;52.044;7.472;2023-02-03T01:34:06;14.40;;;6.15;;
17886;SDS011;9069;52.044;7.472;2023-02-03T01:36:36;12.52;;;5.90;;
17886;SDS011;9069;52.044;7.472;2023-02-03T01:39:03;11.43;;;5.95;;
17886;SDS011;9069;52.044;7.472;2023-02-03T01:41:32;15.65;;;6.38;;
17886;SDS011;9069;52.044;7.472;2023-02-03T01:44:01;14.40;;;5.85;;
17886;SDS011;9069;52.044;7.472;2023-02-03T01:46:48;13.55;;;5.60;;
17886;SDS011;9069;52.044;7.472;2023-02-03T01:49:21;18.95;;;5.88;;
17886;SDS011;9069;52.044;7.472;2023-02-03T01:52:00;15.00;;;6.15;;
17886;SDS011;9069;52.044;7.472;2023-02-03T01:54:30;15.15;;;5.57;;
17886;SDS011;9069;52.044;7.472;2023-02-03T01:57:00;15.23;;;6.00;;
17886;SDS011;9069;52.044;7.472;2023-02-03T01:59:42;14.18;;;5.80;;
17886;SDS011;9069;52.044;7.472;2023-02-03T02:02:09;14.25;;;6.30;;
17886;SDS011;9069;52.044;7.472;2023-02-03T02:05:12;11.45;;;6.30;;
17886;SDS011;9069;52.044;7.472;2023-02-03T02:07:30;13.50;;;6.03;;
17886;SDS011;9069;52.044;7.472;2023-02-03T02:09:59;12.48;;;5.82;;
17886;SDS011;9069;52.044;7.472;2023-02-03T02:12:26;13.98;;;6.55;;
17886;SDS011;9069;52.044;7.472;2023-02-03T02:14:53;13.63;;;5.65;;
17886;SDS011;9069;52.044;7.472;2023-02-03T02:26:04;12.93;;;5.90;;
17886;SDS011;9069;52.044;7.472;2023-02-03T02:34:48;14.20;;;6.07;;
17886;SDS011;9069;52.044;7.472;2023-02-03T02:41:01;10.63;;;5.72;;
17886;SDS011;9069;52.044;7.472;2023-02-03T02:43:36;13.38;;;5.47;;
17886;SDS011;9069;52.044;7.472;2023-02-03T02:46:12;14.93;;;5.50;;
17886;SDS011;9069;52.044;7.472;2023-02-03T02:48:47;14.93;;;6.20;;
17886;SDS011;9069;52.044;7.472;2023-02-03T02:51:19;15.77;;;5.47;;
17886;SDS011;9069;52.044;7.472;2023-02-03T02:53:51;14.73;;;5.32;;
17886;SDS011;9069;52.044;7.472;2023-02-03T02:56:21;11.68;;;5.00;;
17886;SDS011;9069;52.044;7.472;2023-02-03T02:58:50;17.15;;;5.35;;
17886;SDS011;9069;52.044;7.472;2023-02-03T03:01:18;12.77;;;5.18;;
17886;SDS011;9069;52.044;7.472;2023-02-03T03:03:45;14.88;;;5.00;;
17886;SDS011;9069;52.044;7.472;2023-02-03T03:06:20;10.02;;;4.43;;
17886;SDS011;9069;52.044;7.472;2023-02-03T03:08:50;10.07;;;5.03;;
17886;SDS011;9069;52.044;7.472;2023-02-03T03:11:23;8.48;;;3.95;;
17886;SDS011;9069;52.044;7.472;2023-02-03T03:13:54;9.30;;;4.20;;
17886;SDS011;9069;52.044;7.472;2023-02-03T03:16:22;5.20;;;3.60;;
17886;SDS011;9069;52.044;7.472;2023-02-03T03:21:26;16.60;;;4.00;;
17886;SDS011;9069;52.044;7.472;2023-02-03T03:23:58;12.70;;;3.75;;
17886;SDS011;9069;52.044;7.472;2023-02-03T03:26:34;9.65;;;3.63;;
17886;SDS011;9069;52.044;7.472;2023-02-03T03:29:14;10.30;;;3.22;;
17886;SDS011;9069;52.044;7.472;2023-02-03T03:32:03;10.75;;;3.05;;
17886;SDS011;9069;52.044;7.472;2023-02-03T03:34:30;9.60;;;3.80;;
17886;SDS011;9069;52.044;7.472;2023-02-03T03:42:18;8.07;;;3.00;;
17886;SDS011;9069;52.044;7.472;2023-02-03T03:45:30;10.43;;;3.28;;
17886;SDS011;9069;52.044;7.472;2023-02-03T03:50:06;14.82;;;3.60;;
17886;SDS011;9069;52.044;7.472;2023-02-03T03:52:37;5.55;;;2.60;;
17886;SDS011;9069;52.044;7.472;2023-02-03T03:55:07;10.65;;;3.30;;
17886;SDS011;9069;52.044;7.472;2023-02-03T03:57:40;10.55;;;2.70;;
17886;SDS011;9069;52.044;7.472;2023-02-03T04:00:12;4.53;;;2.35;;
17886;SDS011;9069;52.044;7.472;2023-02-03T04:02:42;8.07;;;3.15;;
17886;SDS011;9069;52.044;7.472;2023-02-03T04:05:14;9.20;;;2.88;;
17886;SDS011;9069;52.044;7.472;2023-02-03T04:07:42;7.25;;;2.90;;
17886;SDS011;9069;52.044;7.472;2023-02-03T04:10:17;7.32;;;2.40;;
17886;SDS011;9069;52.044;7.472;2023-02-03T04:12:46;12.07;;;2.90;;
17886;SDS011;9069;52.044;7.472;2023-02-03T04:15:13;6.32;;;2.80;;
17886;SDS011;9069;52.044;7.472;2023-02-03T04:17:39;6.90;;;2.40;;
17886;SDS011;9069;52.044;7.472;2023-02-03T04:20:06;6.93;;;2.63;;
17886;SDS011;9069;52.044;7.472;2023-02-03T04:22:33;6.65;;;2.67;;
17886;SDS011;9069;52.044;7.472;2023-02-03T04:25:00;8.85;;;2.80;;
17886;SDS011;9069;52.044;7.472;2023-02-03T04:27:27;10.10;;;2.20;;
17886;SDS011;9069;52.044;7.472;2023-02-03T04:29:54;7.38;;;3.00;;
17886;SDS011;9069;52.044;7.472;2023-02-03T04:32:20;10.40;;;2.38;;
17886;SDS011;9069;52.044;7.472;2023-02-03T04:34:47;11.43;;;2.50;;
17886;SDS011;9069;52.044;7.472;2023-02-03T04:37:14;8.43;;;2.15;;
17886;SDS011;9069;52.044;7.472;2023-02-03T04:39:40;10.10;;;2.53;;
17886;SDS011;9069;52.044;7.472;2023-02-03T04:42:07;6.97;;;2.58;;
17886;SDS011;9069;52.044;7.472;2023-02-03T04:44:34;6.63;;;2.30;;
17886;SDS011;9069;52.044;7.472;2023-02-03T04:47:00;10.82;;;2.72;;
17886;SDS011;9069;52.044;7.472;2023-02-03T04:49:27;6.35;;;2.33;;
17886;SDS011;9069;52.044;7.472;2023-02-03T04:51:54;7.93;;;2.38;;
17886;SDS011;9069;52.044;7.472;2023-02-03T04:54:20;8.38;;;2.25;;
17886;SDS011;9069;52.044;7.472;2023-02-03T04:56:47;5.97;;;2.08;;
17886;SDS011;9069;52.044;7.472;2023-02-03T04:59:14;8.88;;;2.60;;
17886;SDS011;9069;52.044;7.472;2023-02-03T05:01:41;6.93;;;2.83;;
17886;SDS011;9069;52.044;7.472;2023-02-03T05:04:07;7.00;;;2.58;;
17886;SDS011;9069;52.044;7.472;2023-02-03T05:06:34;10.90;;;3.15;;
17886;SDS011;9069;52.044;7.472;2023-02-03T05:09:01;10.15;;;2.80;;
17886;SDS011;9069;52.044;7.472;2023-02-03T05:11:28;8.35;;;2.42;;
17886;SDS011;9069;52.044;7.472;2023-02-03T05:13:54;10.75;;;2.83;;
17886;SDS011;9069;52.044;7.472;2023-02-03T05:16:22;5.25;;;2.58;;
17886;SDS011;9069;52.044;7.472;2023-02-03T05:18:49;6.85;;;2.83;;
17886;SDS011;9069;52.044;7.472;2023-02-03T05:21:16;7.15;;;2.80;;
17886;SDS011;9069;52.044;7.472;2023-02-03T05:23:43;8.55;;;2.25;;
17886;SDS011;9069;52.044;7.472;2023-02-03T05:26:10;8.10;;;2.60;;
17886;SDS011;9069;52.044;7.472;2023-02-03T05:28:37;5.05;;;2.45;;
17886;SDS011;9069;52.044;7.472;2023-02-03T05:31:04;9.05;;;2.30;;
17886;SDS011;9069;52.044;7.472;2023-02-03T05:33:30;8.38;;;2.15;;
17886;SDS011;9069;52.044;7.472;2023-02-03T05:35:57;6.72;;;2.58;;
17886;SDS011;9069;52.044;7.472;2023-02-03T05:38:24;7.00;;;2.28;;
17886;SDS011;9069;52.044;7.472;2023-02-03T05:40:51;6.40;;;2.33;;
17886;SDS011;9069;52.044;7.472;2023-02-03T05:43:36;9.85;;;2.75;;
17886;SDS011;9069;52.044;7.472;2023-02-03T05:46:04;10.52;;;2.47;;
17886;SDS011;9069;52.044;7.472;2023-02-03T05:48:32;6.60;;;2.38;;
17886;SDS011;9069;52.044;7.472;2023-02-03T05:50:59;7.50;;;2.80;;
17886;SDS011;9069;52.044;7.472;2023-02-03T05:53:25;9.85;;;2.60;;
17886;SDS011;9069;52.044;7.472;2023-02-03T05:55:52;6.65;;;2.42;;
17886;SDS011;9069;52.044;7.472;2023-02-03T05:58:19;6.15;;;2.63;;
17886;SDS011;9069;52.044;7.472;2023-02-03T06:00:46;5.57;;;2.55;;
17886;SDS011;9069;52.044;7.472;2023-02-03T06:03:13;8.20;;;3.22;;
17886;SDS011;9069;52.044;7.472;2023-02-03T06:05:39;8.75;;;2.80;;
17886;SDS011;9069;52.044;7.472;2023-02-03T06:08:06;8.52;;;3.17;;
17886;SDS011;9069;52.044;7.472;2023-02-03T06:10:33;10.75;;;2.90;;
17886;SDS011;9069;52.044;7.472;2023-02-03T06:13:09;10.45;;;2.90;;
17886;SDS011;9069;52.044;7.472;2023-02-03T06:15:38;6.70;;;2.83;;
17886;SDS011;9069;52.044;7.472;2023-02-03T06:18:05;8.18;;;2.60;;
17886;SDS011;9069;52.044;7.472;2023-02-03T06:20:32;11.77;;;2.80;;
17886;SDS011;9069;52.044;7.472;2023-02-03T06:22:59;8.07;;;2.75;;
17886;SDS011;9069;52.044;7.472;2023-02-03T06:25:26;6.80;;;3.10;;
17886;SDS011;9069;52.044;7.472;2023-02-03T06:27:53;7.68;;;3.08;;
17886;SDS011;9069;52.044;7.472;2023-02-03T06:30:19;8.85;;;3.05;;
17886;SDS011;9069;52.044;7.472;2023-02-03T06:32:49;8.63;;;3.08;;
17886;SDS011;9069;52.044;7.472;2023-02-03T06:35:16;10.15;;;3.38;;
17886;SDS011;9069;52.044;7.472;2023-02-03T06:37:43;11.55;;;3.10;;
17886;SDS011;9069;52.044;7.472;2023-02-03T06:40:10;9.70;;;3.22;;
17886;SDS011;9069;52.044;7.472;2023-02-03T06:42:37;9.70;;;2.97;;
17886;SDS011;9069;52.044;7.472;2023-02-03T06:45:04;6.13;;;2.80;;
17886;SDS011;9069;52.044;7.472;2023-02-03T06:47:31;4.78;;;2.17;;
17886;SDS011;9069;52.044;7.472;2023-02-03T06:49:58;9.80;;;2.60;;
17886;SDS011;9069;52.044;7.472;2023-02-03T06:52:24;10.30;;;2.90;;
17886;SDS011;9069;52.044;7.472;2023-02-03T06:54:51;6.47;;;3.17;;
17886;SDS011;9069;52.044;7.472;2023-02-03T06:57:18;8.10;;;2.63;;
17886;SDS011;9069;52.044;7.472;2023-02-03T06:59:45;7.80;;;3.22;;
17886;SDS011;9069;52.044;7.472;2023-02-03T07:02:11;9.63;;;2.88;;
17886;SDS011;9069;52.044;7.472;2023-02-03T07:04:38;9.15;;;2.55;;
17886;SDS011;9069;52.044;7.472;2023-02-03T07:07:05;13.73;;;3.17;;
17886;SDS011;9069;52.044;7.472;2023-02-03T07:09:32;9.27;;;3.22;;
17886;SDS011;9069;52.044;7.472;2023-02-03T07:11:58;5.97;;;2.72;;
17886;SDS011;9069;52.044;7.472;2023-02-03T07:14:25;7.85;;;2.85;;
17886;SDS011;9069;52.044;7.472;2023-02-03T07:16:52;10.23;;;3.03;;
17886;SDS011;9069;52.044;7.472;2023-02-03T07:19:19;11.68;;;3.30;;
17886;SDS011;9069;52.044;7.472;2023-02-03T07:21:46;7.88;;;3.08;;
17886;SDS011;9069;52.044;7.472;2023-02-03T07:24:12;8.93;;;3.20;;
17886;SDS011;9069;52.044;7.472;2023-02-03T07:26:39;11.32;;;3.38;;
17886;SDS011;9069;52.044;7.472;2023-02-03T07:29:06;7.40;;;2.78;;
17886;SDS011;9069;52.044;7.472;2023-02-03T07:31:33;11.63;;;3.45;;
17886;SDS011;9069;52.044;7.472;2023-02-03T07:34:01;9.73;;;3.63;;
17886;SDS011;9069;52.044;7.472;2023-02-03T07:36:27;8.93;;;3.38;;
17886;SDS011;9069;52.044;7.472;2023-02-03T07:38:54;10.52;;;3.08;;
17886;SDS011;9069;52.044;7.472;2023-02-03T07:41:21;7.93;;;3.17;;
17886;SDS011;9069;52.044;7.472;2023-02-03T07:43:48;7.40;;;3.83;;
17886;SDS011;9069;52.044;7.472;2023-02-03T07:46:15;7.97;;;3.97;;
17886;SDS011;9069;52.044;7.472;2023-02-03T07:48:42;8.23;;;3.45;;
17886;SDS011;9069;52.044;7.472;2023-02-03T07:51:08;8.77;;;3.88;;
17886;SDS011;9069;52.044;7.472;2023-02-03T07:53:35;9.05;;;3.70;;
17886;SDS011;9069;52.044;7.472;2023-02-03T07:56:02;13.55;;;3.22;;
17886;SDS011;9069;52.044;7.472;2023-02-03T07:58:30;7.32;;;3.65;;
17886;SDS011;9069;52.044;7.472;2023-02-03T08:00:57;6.20;;;2.95;;
17886;SDS011;9069;52.044;7.472;2023-02-03T08:03:24;10.65;;;3.85;;
17886;SDS011;9069;52.044;7.472;2023-02-03T08:05:51;7.65;;;3.50;;
17886;SDS011;9069;52.044;7.472;2023-02-03T08:08:18;10.43;;;3.40;;
17886;SDS011;9069;52.044;7.472;2023-02-03T08:10:45;13.32;;;3.65;;
17886;SDS011;9069;52.044;7.472;2023-02-03T08:13:12;10.95;;;3.88;;
17886;SDS011;9069;52.044;7.472;2023-02-03T08:15:39;8.35;;;3.38;;
17886;SDS011;9069;52.044;7.472;2023-02-03T08:18:06;12.55;;;4.10;;
17886;SDS011;9069;52.044;7.472;2023-02-03T08:20:34;13.00;;;3.40;;
17886;SDS011;9069;52.044;7.472;2023-02-03T08:23:01;9.52;;;3.60;;
17886;SDS011;9069;52.044;7.472;2023-02-03T08:25:28;11.40;;;3.55;;
17886;SDS011;9069;52.044;7.472;2023-02-03T08:27:55;6.13;;;3.05;;
17886;SDS011;9069;52.044;7.472;2023-02-03T08:30:21;8.48;;;3.30;;
17886;SDS011;9069;52.044;7.472;2023-02-03T08:32:48;10.88;;;3.22;;
17886;SDS011;9069;52.044;7.472;2023-02-03T08:35:15;10.90;;;3.38;;
17886;SDS011;9069;52.044;7.472;2023-02-03T08:37:43;10.32;;;3.35;;
17886;SDS011;9069;52.044;7.472;2023-02-03T08:40:10;15.48;;;4.20;;
17886;SDS011;9069;52.044;7.472;2023-02-03T08:42:37;9.35;;;3.42;;
17886;SDS011;9069;52.044;7.472;2023-02-03T08:45:04;10.07;;;3.60;;
17886;SDS011;9069;52.044;7.472;2023-02-03T08:47:32;6.85;;;3.13;;
17886;SDS011;9069;52.044;7.472;2023-02-03T08:49:59;9.00;;;2.95;;
17886;SDS011;9069;52.044;7.472;2023-02-03T08:52:26;10.93;;;3.75;;
17886;SDS011;9069;52.044;7.472;2023-02-03T08:54:52;11.82;;;4.18;;
17886;SDS011;9069;52.044;7.472;2023-02-03T08:57:19;13.65;;;3.45;;
17886;SDS011;9069;52.044;7.472;2023-02-03T08:59:46;11.30;;;3.95;;
17886;SDS011;9069;52.044;7.472;2023-02-03T09:02:15;13.90;;;3.75;;
17886;SDS011;9069;52.044;7.472;2023-02-03T09:04:44;13.15;;;3.95;;
17886;SDS011;9069;52.044;7.472;2023-02-03T09:07:11;12.35;;;3.22;;
17886;SDS011;9069;52.044;7.472;2023-02-03T09:09:38;9.93;;;3.33;;
17886;SDS011;9069;52.044;7.472;2023-02-03T09:12:05;10.30;;;3.85;;
17886;SDS011;9069;52.044;7.472;2023-02-03T09:14:33;9.32;;;4.15;;
17886;SDS011;9069;52.044;7.472;2023-02-03T09:17:00;9.73;;;3.55;;
17886;SDS011;9069;52.044;7.472;2023-02-03T09:19:29;11.15;;;4.30;;
17886;SDS011;9069;52.044;7.472;2023-02-03T09:21:58;11.65;;;3.85;;
17886;SDS011;9069;52.044;7.472;2023-02-03T09:24:25;7.45;;;3.47;;
17886;SDS011;9069;52.044;7.472;2023-02-03T09:26:52;9.88;;;3.45;;
17886;SDS011;9069;52.044;7.472;2023-02-03T09:29:19;10.65;;;4.28;;
17886;SDS011;9069;52.044;7.472;2023-02-03T09:31:47;5.97;;;2.88;;
17886;SDS011;9069;52.044;7.472;2023-02-03T09:34:15;10.77;;;3.38;;
17886;SDS011;9069;52.044;7.472;2023-02-03T09:36:41;7.93;;;3.45;;
17886;SDS011;9069;52.044;7.472;2023-02-03T09:39:08;10.45;;;3.28;;
17886;SDS011;9069;52.044;7.472;2023-02-03T09:41:55;7.07;;;3.40;;
17886;SDS011;9069;52.044;7.472;2023-02-03T09:44:36;8.10;;;2.63;;
17886;SDS011;9069;52.044;7.472;2023-02-03T09:47:24;10.95;;;2.85;;
17886;SDS011;9069;52.044;7.472;2023-02-03T09:50:02;7.65;;;3.53;;
17886;SDS011;9069;52.044;7.472;2023-02-03T09:52:39;8.32;;;2.88;;
17886;SDS011;9069;52.044;7.472;2023-02-03T09:58:09;11.75;;;4.00;;
17886;SDS011;9069;52.044;7.472;2023-02-03T10:00:42;10.02;;;2.55;;
17886;SDS011;9069;52.044;7.472;2023-02-03T10:03:25;6.82;;;2.72;;
17886;SDS011;9069;52.044;7.472;2023-02-03T10:19:54;9.63;;;2.38;;
17886;SDS011;9069;52.044;7.472;2023-02-03T10:22:29;5.72;;;2.15;;
17886;SDS011;9069;52.044;7.472;2023-02-03T10:25:02;6.97;;;1.90;;
17886;SDS011;9069;52.044;7.472;2023-02-03T10:27:31;13.15;;;2.42;;
17886;SDS011;9069;52.044;7.472;2023-02-03T10:30:05;7.78;;;2.75;;
17886;SDS011;9069;52.044;7.472;2023-02-03T10:33:16;8.70;;;2.30;;
17886;SDS011;9069;52.044;7.472;2023-02-03T10:35:47;7.72;;;2.30;;
17886;SDS011;9069;52.044;7.472;2023-02-03T10:41:35;6.22;;;2.00;;
17886;SDS011;9069;52.044;7.472;2023-02-03T10:44:04;7.07;;;2.13;;
17886;SDS011;9069;52.044;7.472;2023-02-03T10:46:33;8.10;;;2.13;;
17886;SDS011;9069;52.044;7.472;2023-02-03T10:49:02;10.18;;;2.53;;
17886;SDS011;9069;52.044;7.472;2023-02-03T10:51:33;8.95;;;2.60;;
17886;SDS011;9069;52.044;7.472;2023-02-03T10:54:03;3.78;;;1.85;;
17886;SDS011;9069;52.044;7.472;2023-02-03T10:56:31;5.45;;;1.73;;
17886;SDS011;9069;52.044;7.472;2023-02-03T10:59:02;9.77;;;2.03;;
17886;SDS011;9069;52.044;7.472;2023-02-03T11:04:21;9.38;;;2.10;;
17886;SDS011;9069;52.044;7.472;2023-02-03T11:06:57;3.92;;;1.83;;
17886;SDS011;9069;52.044;7.472;2023-02-03T11:09:36;7.63;;;1.83;;
17886;SDS011;9069;52.044;7.472;2023-02-03T11:12:06;9.00;;;2.15;;
17886;SDS011;9069;52.044;7.472;2023-02-03T11:14:38;7.70;;;2.25;;
17886;SDS011;9069;52.044;7.472;2023-02-03T11:17:27;6.60;;;2.00;;
17886;SDS011;9069;52.044;7.472;2023-02-03T11:20:12;8.27;;;2.08;;
17886;SDS011;9069;52.044;7.472;2023-02-03T11:22:42;9.85;;;2.20;;
17886;SDS011;9069;52.044;7.472;2023-02-03T11:25:16;6.25;;;2.30;;
17886;SDS011;9069;52.044;7.472;2023-02-03T11:27:52;4.90;;;2.28;;
17886;SDS011;9069;52.044;7.472;2023-02-03T11:32:49;5.38;;;1.92;;
17886;SDS011;9069;52.044;7.472;2023-02-03T11:35:24;8.85;;;2.30;;
17886;SDS011;9069;52.044;7.472;2023-02-03T11:37:53;7.55;;;2.42;;
17886;SDS011;9069;52.044;7.472;2023-02-03T11:40:23;6.63;;;1.85;;
17886;SDS011;9069;52.044;7.472;2023-02-03T11:53:59;6.72;;;1.77;;
17886;SDS011;9069;52.044;7.472;2023-02-03T12:14:02;14.18;;;3.55;;
17886;SDS011;9069;52.044;7.472;2023-02-03T12:30:38;8.35;;;2.40;;
17886;SDS011;9069;52.044;7.472;2023-02-03T12:33:15;10.43;;;2.30;;
17886;SDS011;9069;52.044;7.472;2023-02-03T12:38:55;13.13;;;2.70;;
17886;SDS011;9069;52.044;7.472;2023-02-03T12:41:30;15.85;;;2.50;;
17886;SDS011;9069;52.044;7.472;2023-02-03T12:44:03;9.90;;;2.95;;
17886;SDS011;9069;52.044;7.472;2023-02-03T12:47:25;16.95;;;2.88;;
17886;SDS011;9069;52.044;7.472;2023-02-03T12:49:46;19.40;;;2.75;;
17886;SDS011;9069;52.044;7.472;2023-02-03T12:52:37;20.63;;;2.92;;
17886;SDS011;9069;52.044;7.472;2023-02-03T12:55:31;15.10;;;3.05;;
17886;SDS011;9069;52.044;7.472;2023-02-03T12:58:04;13.48;;;2.60;;
17886;SDS011;9069;52.044;7.472;2023-02-03T13:00:55;17.75;;;3.05;;
17886;SDS011;9069;52.044;7.472;2023-02-03T13:03:41;20.25;;;2.72;;
17886;SDS011;9069;52.044;7.472;2023-02-03T13:06:17;13.20;;;2.80;;
17886;SDS011;9069;52.044;7.472;2023-02-03T13:11:35;10.82;;;2.33;;
17886;SDS011;9069;52.044;7.472;2023-02-03T13:14:14;16.17;;;3.15;;
17886;SDS011;9069;52.044;7.472;2023-02-03T13:17:17;14.95;;;3.20;;
17886;SDS011;9069;52.044;7.472;2023-02-03T13:19:59;16.45;;;3.25;;
17886;SDS011;9069;52.044;7.472;2023-02-03T13:22:30;18.98;;;3.95;;
17886;SDS011;9069;52.044;7.472;2023-02-03T13:30:22;20.67;;;4.32;;
17886;SDS011;9069;52.044;7.472;2023-02-03T13:38:27;15.02;;;3.25;;
17886;SDS011;9069;52.044;7.472;2023-02-03T13:43:35;23.63;;;4.93;;
17886;SDS011;9069;52.044;7.472;2023-02-03T13:46:16;23.20;;;3.22;;
17886;SDS011;9069;52.044;7.472;2023-02-03T13:48:52;17.33;;;3.50;;
17886;SDS011;9069;52.044;7.472;2023-02-03T13:51:23;17.45;;;3.67;;
17886;SDS011;9069;52.044;7.472;2023-02-03T13:54:07;24.02;;;3.83;;
17886;SDS011;9069;52.044;7.472;2023-02-03T13:57:00;20.52;;;4.03;;
17886;SDS011;9069;52.044;7.472;2023-02-03T13:59:39;23.67;;;3.80;;
17886;SDS011;9069;52.044;7.472;2023-02-03T14:04:53;20.20;;;3.75;;
17886;SDS011;9069;52.044;7.472;2023-02-03T14:07:30;16.90;;;3.22;;
17886;SDS011;9069;52.044;7.472;2023-02-03T14:10:21;25.58;;;3.22;;
17886;SDS011;9069;52.044;7.472;2023-02-03T14:22:51;26.15;;;3.53;;
17886;SDS011;9069;52.044;7.472;2023-02-03T14:25:24;20.08;;;4.18;;
17886;SDS011;9069;52.044;7.472;2023-02-03T14:28:03;25.05;;;2.95;;
17886;SDS011;9069;52.044;7.472;2023-02-03T14:30:33;19.15;;;2.85;;
17886;SDS011;9069;52.044;7.472;2023-02-03T14:33:36;16.20;;;3.38;;
17886;SDS011;9069;52.044;7.472;2023-02-03T14:36:24;15.95;;;3.08;;
17886;SDS011;9069;52.044;7.472;2023-02-03T14:38:52;14.70;;;3.25;;
17886;SDS011;9069;52.044;7.472;2023-02-03T14:41:25;22.17;;;3.17;;
17886;SDS011;9069;52.044;7.472;2023-02-03T14:44:07;18.52;;;3.38;;
17886;SDS011;9069;52.044;7.472;2023-02-03T14:49:23;18.88;;;3.47;;
17886;SDS011;9069;52.044;7.472;2023-02-03T14:57:42;18.50;;;3.10;;
17886;SDS011;9069;52.044;7.472;2023-02-03T15:03:13;12.75;;;2.42;;
17886;SDS011;9069;52.044;7.472;2023-02-03T15:05:36;19.17;;;3.40;;
17886;SDS011;9069;52.044;7.472;2023-02-03T15:11:25;19.65;;;2.97;;
17886;SDS011;9069;52.044;7.472;2023-02-03T15:13:56;25.35;;;3.42;;
17886;SDS011;9069;52.044;7.472;2023-02-03T15:16:44;21.00;;;3.85;;
17886;SDS011;9069;52.044;7.472;2023-02-03T15:19:17;17.20;;;2.83;;
17886;SDS011;9069;52.044;7.472;2023-02-03T15:21:45;21.00;;;3.40;;
17886;SDS011;9069;52.044;7.472;2023-02-03T15:24:14;19.63;;;3.55;;
17886;SDS011;9069;52.044;7.472;2023-02-03T15:26:44;18.98;;;3.28;;
17886;SDS011;9069;52.044;7.472;2023-02-03T15:31:48;20.63;;;3.80;;
17886;SDS011;9069;52.044;7.472;2023-02-03T15:34:29;19.55;;;3.70;;
17886;SDS011;9069;52.044;7.472;2023-02-03T15:36:58;24.05;;;4.00;;
17886;SDS011;9069;52.044;7.472;2023-02-03T15:42:32;16.02;;;3.38;;
17886;SDS011;9069;52.044;7.472;2023-02-03T15:47:55;27.92;;;3.78;;
17886;SDS011;9069;52.044;7.472;2023-02-03T15:50:28;25.88;;;4.35;;
17886;SDS011;9069;52.044;7.472;2023-02-03T15:52:59;27.77;;;3.67;;
17886;SDS011;9069;52.044;7.472;2023-02-03T15:55:35;21.10;;;3.85;;
17886;SDS011;9069;52.044;7.472;2023-02-03T15:58:15;20.10;;;3.78;;
17886;SDS011;9069;52.044;7.472;2023-02-03T16:00:52;17.50;;;3.72;;
17886;SDS011;9069;52.044;7.472;2023-02-03T16:03:47;19.08;;;4.30;;
17886;SDS011;9069;52.044;7.472;2023-02-03T16:08:46;26.08;;;4.15;;
17886;SDS011;9069;52.044;7.472;2023-02-03T16:11:33;24.30;;;4.00;;
17886;SDS011;9069;52.044;7.472;2023-02-03T16:14:03;19.45;;;4.30;;
17886;SDS011;9069;52.044;7.472;2023-02-03T16:16:50;22.95;;;4.30;;
17886;SDS011;9069;52.044;7.472;2023-02-03T16:19:31;23.48;;;4.65;;
17886;SDS011;9069;52.044;7.472;2023-02-03T16:22:03;22.67;;;4.18;;
17886;SDS011;9069;52.044;7.472;2023-02-03T16:24:50;21.42;;;4.10;;
17886;SDS011;9069;52.044;7.472;2023-02-03T16:30:14;20.13;;;3.28;;
17886;SDS011;9069;52.044;7.472;2023-02-03T16:35:55;17.73;;;3.97;;
17886;SDS011;9069;52.044;7.472;2023-02-03T16:38:45;15.60;;;3.22;;
17886;SDS011;9069;52.044;7.472;2023-02-03T16:41:32;31.67;;;3.80;;
17886;SDS011;9069;52.044;7.472;2023-02-03T16:44:18;21.38;;;5.43;;
17886;SDS011;9069;52.044;7.472;2023-02-03T16:47:08;18.98;;;4.10;;
17886;SDS011;9069;52.044;7.472;2023-02-03T16:50:10;12.68;;;4.13;;
17886;SDS011;9069;52.044;7.472;2023-02-03T16:53:05;23.63;;;4.40;;
17886;SDS011;9069;52.044;7.472;2023-02-03T16:55:37;19.00;;;4.43;;
17886;SDS011;9069;52.044;7.472;2023-02-03T16:58:04;21.42;;;3.97;;
17886;SDS011;9069;52.044;7.472;2023-02-03T17:00:31;28.73;;;5.80;;
17886;SDS011;9069;52.044;7.472;2023-02-03T17:02:57;14.55;;;3.22;;
17886;SDS011;9069;52.044;7.472;2023-02-03T17:05:29;19.42;;;3.75;;
17886;SDS011;9069;52.044;7.472;2023-02-03T17:07:56;21.50;;;4.00;;
17886;SDS011;9069;52.044;7.472;2023-02-03T17:10:23;15.95;;;3.42;;
17886;SDS011;9069;52.044;7.472;2023-02-03T17:12:50;14.27;;;3.80;;
17886;SDS011;9069;52.044;7.472;2023-02-03T17:15:17;25.75;;;3.97;;
17886;SDS011;9069;52.044;7.472;2023-02-03T17:17:44;22.35;;;3.42;;
17886;SDS011;9069;52.044;7.472;2023-02-03T17:20:11;22.42;;;3.78;;
17886;SDS011;9069;52.044;7.472;2023-02-03T17:22:38;23.23;;;4.32;;
17886;SDS011;9069;52.044;7.472;2023-02-03T17:25:04;33.03;;;6.25;;
17886;SDS011;9069;52.044;7.472;2023-02-03T17:27:31;17.73;;;4.38;;
17886;SDS011;9069;52.044;7.472;2023-02-03T17:29:58;22.80;;;4.10;;
17886;SDS011;9069;52.044;7.472;2023-02-03T17:32:25;18.13;;;4.38;;
17886;SDS011;9069;52.044;7.472;2023-02-03T17:34:52;21.08;;;4.43;;
17886;SDS011;9069;52.044;7.472;2023-02-03T17:37:18;18.05;;;4.20;;
17886;SDS011;9069;52.044;7.472;2023-02-03T17:39:45;18.48;;;3.60;;
17886;SDS011;9069;52.044;7.472;2023-02-03T17:42:30;17.23;;;3.55;;
17886;SDS011;9069;52.044;7.472;2023-02-03T17:45:14;14.98;;;3.28;;
17886;SDS011;9069;52.044;7.472;2023-02-03T17:47:58;13.32;;;3.83;;
17886;SDS011;9069;52.044;7.472;2023-02-03T17:50:46;16.10;;;3.70;;
17886;SDS011;9069;52.044;7.472;2023-02-03T17:53:30;20.85;;;4.00;;
17886;SDS011;9069;52.044;7.472;2023-02-03T17:55:58;13.80;;;3.38;;
17886;SDS011;9069;52.044;7.472;2023-02-03T17:58:38;20.58;;;3.95;;